sensor_id;sensor_type;location;lat;lon;timestamp;temperature;humidity
22290;DHT22;11313;50.116;8.424;2023-04-01T00:01:26;24.10;42.80
22290;DHT22;11313;50.116;8.424;2023-04-01T00:03:51;24.10;42.80
22290;DHT22;11313;50.116;8.424;2023-04-01T00:06:18;24.10;42.80
22290;DHT22;11313;50.116;8.424;2023-04-01T00:08:44;24.10;42.80
22290;DHT22;11313;50.116;8.424;2023-04-01T00:11:10;24.10;42.80
22290;DHT22;11313;50.116;8.424;2023-04-01T00:13:36;24.10;42.80
22290;DHT22;11313;50.116;8.424;2023-04-01T00:16:01;24.10;42.80
22290;DHT22;11313;50.116;8.424;2023-04-01T00:18:28;24.10;42.80
22290;DHT22;11313;50.116;8.424;2023-04-01T00:20:54;24.10;42.80
22290;DHT22;11313;50.116;8.424;2023-04-01T00:23:20;24.00;42.80
22290;DHT22;11313;50.116;8.424;2023-04-01T00:25:46;24.10;42.80
22290;DHT22;11313;50.116;8.424;2023-04-01T00:28:17;24.10;42.80
22290;DHT22;11313;50.116;8.424;2023-04-01T00:30:43;24.00;42.80
22290;DHT22;11313;50.116;8.424;2023-04-01T00:33:09;24.00;42.80
22290;DHT22;11313;50.116;8.424;2023-04-01T00:35:34;24.00;42.80
22290;DHT22;11313;50.116;8.424;2023-04-01T00:38:00;24.10;42.90
22290;DHT22;11313;50.116;8.424;2023-04-01T00:40:35;24.00;42.90
22290;DHT22;11313;50.116;8.424;2023-04-01T00:43:01;24.00;42.80
22290;DHT22;11313;50.116;8.424;2023-04-01T00:45:36;24.00;42.80
22290;DHT22;11313;50.116;8.424;2023-04-01T00:48:23;24.00;42.80
22290;DHT22;11313;50.116;8.424;2023-04-01T00:51:15;24.00;42.80
22290;DHT22;11313;50.116;8.424;2023-04-01T00:53:41;24.00;42.80
22290;DHT22;11313;50.116;8.424;2023-04-01T00:56:14;24.00;42.90
22290;DHT22;11313;50.116;8.424;2023-04-01T00:58:44;24.00;42.90
22290;DHT22;11313;50.116;8.424;2023-04-01T01:01:11;24.00;42.90
22290;DHT22;11313;50.116;8.424;2023-04-01T01:03:37;24.00;42.90
22290;DHT22;11313;50.116;8.424;2023-04-01T01:06:26;24.00;42.90
22290;DHT22;11313;50.116;8.424;2023-04-01T01:14:39;24.00;42.90
22290;DHT22;11313;50.116;8.424;2023-04-01T01:17:22;24.00;42.90
22290;DHT22;11313;50.116;8.424;2023-04-01T01:23:18;23.90;42.90
22290;DHT22;11313;50.116;8.424;2023-04-01T01:34:40;23.90;43.60
22290;DHT22;11313;50.116;8.424;2023-04-01T01:37:13;23.90;43.00
22290;DHT22;11313;50.116;8.424;2023-04-01T01:39:41;23.90;43.00
22290;DHT22;11313;50.116;8.424;2023-04-01T01:42:10;23.90;43.00
22290;DHT22;11313;50.116;8.424;2023-04-01T01:44:38;23.90;43.00
22290;DHT22;11313;50.116;8.424;2023-04-01T01:47:04;23.90;43.00
22290;DHT22;11313;50.116;8.424;2023-04-01T01:49:32;23.90;43.00
22290;DHT22;11313;50.116;8.424;2023-04-01T01:51:58;23.90;43.00
22290;DHT22;11313;50.116;8.424;2023-04-01T01:54:25;23.90;43.00
22290;DHT22;11313;50.116;8.424;2023-04-01T01:56:55;23.90;43.00
22290;DHT22;11313;50.116;8.424;2023-04-01T01:59:24;23.90;43.00
22290;DHT22;11313;50.116;8.424;2023-04-01T02:01:51;23.90;43.00
22290;DHT22;11313;50.116;8.424;2023-04-01T02:04:19;23.90;43.00
22290;DHT22;11313;50.116;8.424;2023-04-01T02:06:55;23.90;43.00
22290;DHT22;11313;50.116;8.424;2023-04-01T02:09:23;23.90;43.00
22290;DHT22;11313;50.116;8.424;2023-04-01T02:11:58;23.90;43.00
22290;DHT22;11313;50.116;8.424;2023-04-01T02:14:57;23.90;43.00
22290;DHT22;11313;50.116;8.424;2023-04-01T02:17:28;23.90;43.00
22290;DHT22;11313;50.116;8.424;2023-04-01T02:20:19;23.90;43.00
22290;DHT22;11313;50.116;8.424;2023-04-01T02:22:54;23.90;43.00
22290;DHT22;11313;50.116;8.424;2023-04-01T02:25:25;23.90;43.00
22290;DHT22;11313;50.116;8.424;2023-04-01T02:27:51;23.90;43.00
22290;DHT22;11313;50.116;8.424;2023-04-01T02:30:18;23.90;43.00
22290;DHT22;11313;50.116;8.424;2023-04-01T02:32:45;23.90;43.00
22290;DHT22;11313;50.116;8.424;2023-04-01T02:35:14;23.90;43.00
22290;DHT22;11313;50.116;8.424;2023-04-01T02:37:41;23.90;43.00
22290;DHT22;11313;50.116;8.424;2023-04-01T02:40:10;23.90;42.90
22290;DHT22;11313;50.116;8.424;2023-04-01T02:42:36;23.90;42.90
22290;DHT22;11313;50.116;8.424;2023-04-01T02:45:02;23.90;42.90
22290;DHT22;11313;50.116;8.424;2023-04-01T02:47:28;23.90;42.80
22290;DHT22;11313;50.116;8.424;2023-04-01T02:49:54;23.90;42.90
22290;DHT22;11313;50.116;8.424;2023-04-01T02:52:24;24.00;42.90
22290;DHT22;11313;50.116;8.424;2023-04-01T02:54:49;24.00;42.90
22290;DHT22;11313;50.116;8.424;2023-04-01T02:57:15;24.00;42.80
22290;DHT22;11313;50.116;8.424;2023-04-01T02:59:40;24.00;42.80
22290;DHT22;11313;50.116;8.424;2023-04-01T03:02:06;24.00;42.80
22290;DHT22;11313;50.116;8.424;2023-04-01T03:04:32;24.00;42.80
22290;DHT22;11313;50.116;8.424;2023-04-01T03:06:57;24.00;42.80
22290;DHT22;11313;50.116;8.424;2023-04-01T03:09:23;24.00;42.80
22290;DHT22;11313;50.116;8.424;2023-04-01T03:11:48;24.00;42.70
22290;DHT22;11313;50.116;8.424;2023-04-01T03:14:14;24.10;42.80
22290;DHT22;11313;50.116;8.424;2023-04-01T03:16:40;24.10;42.80
22290;DHT22;11313;50.116;8.424;2023-04-01T03:19:05;24.10;42.80
22290;DHT22;11313;50.116;8.424;2023-04-01T03:21:32;24.10;42.80
22290;DHT22;11313;50.116;8.424;2023-04-01T03:23:57;24.10;42.80
22290;DHT22;11313;50.116;8.424;2023-04-01T03:26:24;24.10;42.70
22290;DHT22;11313;50.116;8.424;2023-04-01T03:28:49;24.10;42.70
22290;DHT22;11313;50.116;8.424;2023-04-01T03:31:15;24.10;42.80
22290;DHT22;11313;50.116;8.424;2023-04-01T03:33:41;24.10;42.70
22290;DHT22;11313;50.116;8.424;2023-04-01T03:36:07;24.10;42.70
22290;DHT22;11313;50.116;8.424;2023-04-01T03:38:34;24.10;42.70
22290;DHT22;11313;50.116;8.424;2023-04-01T03:41:00;24.10;42.60
22290;DHT22;11313;50.116;8.424;2023-04-01T03:43:25;24.10;42.60
22290;DHT22;11313;50.116;8.424;2023-04-01T03:45:52;24.10;42.70
22290;DHT22;11313;50.116;8.424;2023-04-01T03:48:18;24.10;42.70
22290;DHT22;11313;50.116;8.424;2023-04-01T03:50:46;24.10;42.70
22290;DHT22;11313;50.116;8.424;2023-04-01T03:53:11;24.10;42.60
22290;DHT22;11313;50.116;8.424;2023-04-01T03:55:37;24.10;42.60
22290;DHT22;11313;50.116;8.424;2023-04-01T03:58:04;24.10;42.70
22290;DHT22;11313;50.116;8.424;2023-04-01T04:00:30;24.10;42.60
22290;DHT22;11313;50.116;8.424;2023-04-01T04:02:56;24.10;42.60
22290;DHT22;11313;50.116;8.424;2023-04-01T04:05:23;24.10;42.60
22290;DHT22;11313;50.116;8.424;2023-04-01T04:07:49;24.10;42.60
22290;DHT22;11313;50.116;8.424;2023-04-01T04:10:15;24.10;42.60
22290;DHT22;11313;50.116;8.424;2023-04-01T04:12:40;24.10;42.60
22290;DHT22;11313;50.116;8.424;2023-04-01T04:17:35;24.10;42.60
22290;DHT22;11313;50.116;8.424;2023-04-01T04:20:01;24.10;42.60
22290;DHT22;11313;50.116;8.424;2023-04-01T04:22:27;24.10;42.60
22290;DHT22;11313;50.116;8.424;2023-04-01T04:24:53;24.10;42.70
22290;DHT22;11313;50.116;8.424;2023-04-01T04:27:18;24.10;42.70
22290;DHT22;11313;50.116;8.424;2023-04-01T04:29:44;24.10;42.60
22290;DHT22;11313;50.116;8.424;2023-04-01T04:32:09;24.10;42.70
22290;DHT22;11313;50.116;8.424;2023-04-01T04:34:35;24.10;42.60
22290;DHT22;11313;50.116;8.424;2023-04-01T04:37:00;24.10;42.70
22290;DHT22;11313;50.116;8.424;2023-04-01T04:39:26;24.10;42.70
22290;DHT22;11313;50.116;8.424;2023-04-01T04:41:51;24.10;42.70
22290;DHT22;11313;50.116;8.424;2023-04-01T04:44:17;24.10;42.70
22290;DHT22;11313;50.116;8.424;2023-04-01T04:46:43;24.10;42.70
22290;DHT22;11313;50.116;8.424;2023-04-01T04:49:09;24.10;42.70
22290;DHT22;11313;50.116;8.424;2023-04-01T04:51:34;24.10;42.70
22290;DHT22;11313;50.116;8.424;2023-04-01T04:54:02;24.10;42.70
22290;DHT22;11313;50.116;8.424;2023-04-01T04:56:28;24.10;42.70
22290;DHT22;11313;50.116;8.424;2023-04-01T04:58:53;24.10;42.70
22290;DHT22;11313;50.116;8.424;2023-04-01T05:01:19;24.10;42.70
22290;DHT22;11313;50.116;8.424;2023-04-01T05:03:45;24.10;42.70
22290;DHT22;11313;50.116;8.424;2023-04-01T05:06:13;24.10;42.70
22290;DHT22;11313;50.116;8.424;2023-04-01T05:08:39;24.10;42.70
22290;DHT22;11313;50.116;8.424;2023-04-01T05:11:07;24.00;42.70
22290;DHT22;11313;50.116;8.424;2023-04-01T05:13:35;24.00;42.70
22290;DHT22;11313;50.116;8.424;2023-04-01T05:16:01;24.00;42.70
22290;DHT22;11313;50.116;8.424;2023-04-01T05:18:26;24.00;42.70
22290;DHT22;11313;50.116;8.424;2023-04-01T05:20:53;24.00;42.70
22290;DHT22;11313;50.116;8.424;2023-04-01T05:23:20;24.00;42.70
22290;DHT22;11313;50.116;8.424;2023-04-01T05:25:47;24.00;42.70
22290;DHT22;11313;50.116;8.424;2023-04-01T05:28:13;24.00;42.70
22290;DHT22;11313;50.116;8.424;2023-04-01T05:30:42;24.00;42.80
22290;DHT22;11313;50.116;8.424;2023-04-01T05:33:09;24.00;42.80
22290;DHT22;11313;50.116;8.424;2023-04-01T05:35:35;24.00;42.80
22290;DHT22;11313;50.116;8.424;2023-04-01T05:38:01;24.00;42.80
22290;DHT22;11313;50.116;8.424;2023-04-01T05:40:28;23.90;42.80
22290;DHT22;11313;50.116;8.424;2023-04-01T05:42:54;24.00;42.80
22290;DHT22;11313;50.116;8.424;2023-04-01T05:45:19;23.90;42.80
22290;DHT22;11313;50.116;8.424;2023-04-01T05:47:45;23.90;42.80
22290;DHT22;11313;50.116;8.424;2023-04-01T05:50:10;24.00;42.90
22290;DHT22;11313;50.116;8.424;2023-04-01T05:52:36;24.00;42.80
22290;DHT22;11313;50.116;8.424;2023-04-01T05:55:02;24.00;42.90
22290;DHT22;11313;50.116;8.424;2023-04-01T05:57:27;23.90;42.80
22290;DHT22;11313;50.116;8.424;2023-04-01T05:59:53;23.90;42.80
22290;DHT22;11313;50.116;8.424;2023-04-01T06:02:18;23.90;42.80
22290;DHT22;11313;50.116;8.424;2023-04-01T06:04:45;23.90;42.80
22290;DHT22;11313;50.116;8.424;2023-04-01T06:07:12;23.90;42.80
22290;DHT22;11313;50.116;8.424;2023-04-01T06:09:38;23.90;42.80
22290;DHT22;11313;50.116;8.424;2023-04-01T06:33:13;23.90;42.80
22290;DHT22;11313;50.116;8.424;2023-04-01T06:36:20;23.90;42.80
22290;DHT22;11313;50.116;8.424;2023-04-01T06:45:08;23.90;42.80
22290;DHT22;11313;50.116;8.424;2023-04-01T06:47:38;24.00;42.90
22290;DHT22;11313;50.116;8.424;2023-04-01T06:50:11;24.00;42.80
22290;DHT22;11313;50.116;8.424;2023-04-01T06:53:03;24.00;42.70
22290;DHT22;11313;50.116;8.424;2023-04-01T06:55:47;24.00;42.80
22290;DHT22;11313;50.116;8.424;2023-04-01T06:58:21;24.00;42.80
22290;DHT22;11313;50.116;8.424;2023-04-01T07:00:50;23.90;42.70
22290;DHT22;11313;50.116;8.424;2023-04-01T07:03:21;24.00;42.70
22290;DHT22;11313;50.116;8.424;2023-04-01T07:05:48;24.00;42.70
22290;DHT22;11313;50.116;8.424;2023-04-01T07:08:25;24.10;42.70
22290;DHT22;11313;50.116;8.424;2023-04-01T07:11:02;24.10;42.60
22290;DHT22;11313;50.116;8.424;2023-04-01T07:13:36;24.10;42.70
22290;DHT22;11313;50.116;8.424;2023-04-01T07:18:52;24.10;42.70
22290;DHT22;11313;50.116;8.424;2023-04-01T07:21:26;24.10;42.60
22290;DHT22;11313;50.116;8.424;2023-04-01T07:23:58;24.10;42.60
22290;DHT22;11313;50.116;8.424;2023-04-01T07:26:26;24.10;42.60
22290;DHT22;11313;50.116;8.424;2023-04-01T07:28:52;24.10;42.60
22290;DHT22;11313;50.116;8.424;2023-04-01T07:34:19;24.10;42.60
22290;DHT22;11313;50.116;8.424;2023-04-01T07:45:14;24.20;43.00
22290;DHT22;11313;50.116;8.424;2023-04-01T07:48:15;24.20;43.00
22290;DHT22;11313;50.116;8.424;2023-04-01T07:50:57;24.20;43.30
22290;DHT22;11313;50.116;8.424;2023-04-01T07:53:41;24.20;43.30
22290;DHT22;11313;50.116;8.424;2023-04-01T08:07:28;24.20;43.50
22290;DHT22;11313;50.116;8.424;2023-04-01T08:10:08;24.20;43.60
22290;DHT22;11313;50.116;8.424;2023-04-01T08:15:21;24.20;43.70
22290;DHT22;11313;50.116;8.424;2023-04-01T08:20:45;24.20;43.70
22290;DHT22;11313;50.116;8.424;2023-04-01T08:23:26;24.20;43.80
22290;DHT22;11313;50.116;8.424;2023-04-01T08:28:50;24.20;43.80
22290;DHT22;11313;50.116;8.424;2023-04-01T08:31:30;24.20;43.80
22290;DHT22;11313;50.116;8.424;2023-04-01T08:33:58;24.20;43.80
22290;DHT22;11313;50.116;8.424;2023-04-01T08:36:37;24.20;43.80
22290;DHT22;11313;50.116;8.424;2023-04-01T08:39:09;24.20;43.90
22290;DHT22;11313;50.116;8.424;2023-04-01T08:46:56;24.20;44.00
22290;DHT22;11313;50.116;8.424;2023-04-01T08:49:42;24.20;44.00
22290;DHT22;11313;50.116;8.424;2023-04-01T08:52:28;24.20;44.10
22290;DHT22;11313;50.116;8.424;2023-04-01T08:55:40;24.20;44.10
22290;DHT22;11313;50.116;8.424;2023-04-01T09:01:26;24.20;44.40
22290;DHT22;11313;50.116;8.424;2023-04-01T09:04:19;24.20;44.60
22290;DHT22;11313;50.116;8.424;2023-04-01T09:07:12;24.20;44.60
22290;DHT22;11313;50.116;8.424;2023-04-01T09:10:14;24.20;44.50
22290;DHT22;11313;50.116;8.424;2023-04-01T09:18:20;24.20;44.60
22290;DHT22;11313;50.116;8.424;2023-04-01T09:20:58;24.20;44.50
22290;DHT22;11313;50.116;8.424;2023-04-01T09:26:16;24.20;44.60
22290;DHT22;11313;50.116;8.424;2023-04-01T09:29:11;24.20;44.50
22290;DHT22;11313;50.116;8.424;2023-04-01T09:35:06;24.20;44.60
22290;DHT22;11313;50.116;8.424;2023-04-01T09:43:16;24.10;44.60
22290;DHT22;11313;50.116;8.424;2023-04-01T09:46:10;24.10;44.50
22290;DHT22;11313;50.116;8.424;2023-04-01T09:48:53;24.10;44.50
22290;DHT22;11313;50.116;8.424;2023-04-01T09:56:52;24.10;44.50
22290;DHT22;11313;50.116;8.424;2023-04-01T10:08:06;24.10;44.50
22290;DHT22;11313;50.116;8.424;2023-04-01T10:10:57;24.10;44.50
22290;DHT22;11313;50.116;8.424;2023-04-01T10:13:49;24.10;44.50
22290;DHT22;11313;50.116;8.424;2023-04-01T10:24:41;24.10;44.60
22290;DHT22;11313;50.116;8.424;2023-04-01T10:27:16;24.10;44.60
22290;DHT22;11313;50.116;8.424;2023-04-01T10:30:24;24.10;44.60
22290;DHT22;11313;50.116;8.424;2023-04-01T10:33:05;24.10;44.50
22290;DHT22;11313;50.116;8.424;2023-04-01T10:36:01;24.10;44.50
22290;DHT22;11313;50.116;8.424;2023-04-01T10:42:09;24.10;44.50
22290;DHT22;11313;50.116;8.424;2023-04-01T10:56:04;24.10;44.70
22290;DHT22;11313;50.116;8.424;2023-04-01T11:02:11;24.10;44.80
22290;DHT22;11313;50.116;8.424;2023-04-01T11:16:43;24.10;45.00
22290;DHT22;11313;50.116;8.424;2023-04-01T11:19:37;24.10;45.00
22290;DHT22;11313;50.116;8.424;2023-04-01T11:25:04;24.10;45.10
22290;DHT22;11313;50.116;8.424;2023-04-01T11:33:49;24.20;45.10
22290;DHT22;11313;50.116;8.424;2023-04-01T11:44:45;24.20;45.10
22290;DHT22;11313;50.116;8.424;2023-04-01T11:51:01;24.20;45.10
22290;DHT22;11313;50.116;8.424;2023-04-01T11:53:30;24.20;45.10
22290;DHT22;11313;50.116;8.424;2023-04-01T11:58:43;24.20;45.10
22290;DHT22;11313;50.116;8.424;2023-04-01T12:01:21;24.20;45.10
22290;DHT22;11313;50.116;8.424;2023-04-01T12:12:44;24.20;45.00
22290;DHT22;11313;50.116;8.424;2023-04-01T12:21:09;24.20;45.00
22290;DHT22;11313;50.116;8.424;2023-04-01T12:32:59;24.30;44.90
22290;DHT22;11313;50.116;8.424;2023-04-01T12:41:06;24.30;44.80
22290;DHT22;11313;50.116;8.424;2023-04-01T12:52:06;24.30;44.60
22290;DHT22;11313;50.116;8.424;2023-04-01T12:54:48;24.30;44.60
22290;DHT22;11313;50.116;8.424;2023-04-01T13:06:11;24.30;44.60
22290;DHT22;11313;50.116;8.424;2023-04-01T13:11:28;24.30;44.60
22290;DHT22;11313;50.116;8.424;2023-04-01T13:14:20;24.30;44.50
22290;DHT22;11313;50.116;8.424;2023-04-01T13:17:02;24.30;44.60
22290;DHT22;11313;50.116;8.424;2023-04-01T13:19:49;24.30;44.60
22290;DHT22;11313;50.116;8.424;2023-04-01T13:22:35;24.30;44.50
22290;DHT22;11313;50.116;8.424;2023-04-01T13:25:46;24.30;44.50
22290;DHT22;11313;50.116;8.424;2023-04-01T13:28:17;24.30;44.50
22290;DHT22;11313;50.116;8.424;2023-04-01T13:31:13;24.30;44.50
22290;DHT22;11313;50.116;8.424;2023-04-01T13:33:50;24.30;44.60
22290;DHT22;11313;50.116;8.424;2023-04-01T13:36:48;24.30;44.60
22290;DHT22;11313;50.116;8.424;2023-04-01T13:39:32;24.40;44.80
22290;DHT22;11313;50.116;8.424;2023-04-01T13:42:12;24.40;44.70
22290;DHT22;11313;50.116;8.424;2023-04-01T13:44:51;24.40;44.80
22290;DHT22;11313;50.116;8.424;2023-04-01T13:50:37;24.40;45.00
22290;DHT22;11313;50.116;8.424;2023-04-01T13:56:39;24.30;44.90
22290;DHT22;11313;50.116;8.424;2023-04-01T14:02:13;24.30;45.00
22290;DHT22;11313;50.116;8.424;2023-04-01T14:12:43;24.30;45.00
22290;DHT22;11313;50.116;8.424;2023-04-01T14:15:16;24.30;45.00
22290;DHT22;11313;50.116;8.424;2023-04-01T14:23:39;24.30;45.00
22290;DHT22;11313;50.116;8.424;2023-04-01T14:26:16;24.30;45.10
22290;DHT22;11313;50.116;8.424;2023-04-01T14:34:28;24.30;45.10
22290;DHT22;11313;50.116;8.424;2023-04-01T14:47:29;24.30;45.00
22290;DHT22;11313;50.116;8.424;2023-04-01T14:50:11;24.20;45.00
22290;DHT22;11313;50.116;8.424;2023-04-01T14:52:42;24.20;45.00
22290;DHT22;11313;50.116;8.424;2023-04-01T14:55:31;24.20;45.00
22290;DHT22;11313;50.116;8.424;2023-04-01T14:58:12;24.20;45.00
22290;DHT22;11313;50.116;8.424;2023-04-01T15:03:40;24.30;45.00
22290;DHT22;11313;50.116;8.424;2023-04-01T15:11:51;24.20;45.00
22290;DHT22;11313;50.116;8.424;2023-04-01T15:17:05;24.20;45.10
22290;DHT22;11313;50.116;8.424;2023-04-01T15:19:59;24.20;45.00
22290;DHT22;11313;50.116;8.424;2023-04-01T15:22:54;24.20;45.00
22290;DHT22;11313;50.116;8.424;2023-04-01T15:25:45;24.20;45.10
22290;DHT22;11313;50.116;8.424;2023-04-01T15:28:45;24.20;45.10
22290;DHT22;11313;50.116;8.424;2023-04-01T15:36:45;24.20;45.10
22290;DHT22;11313;50.116;8.424;2023-04-01T15:39:48;24.20;45.10
22290;DHT22;11313;50.116;8.424;2023-04-01T15:43:03;24.20;45.10
22290;DHT22;11313;50.116;8.424;2023-04-01T15:48:46;24.20;45.10
22290;DHT22;11313;50.116;8.424;2023-04-01T15:54:24;24.20;45.10
22290;DHT22;11313;50.116;8.424;2023-04-01T16:05:05;24.20;45.30
22290;DHT22;11313;50.116;8.424;2023-04-01T16:08:03;24.20;45.30
22290;DHT22;11313;50.116;8.424;2023-04-01T16:10:45;24.20;45.30
22290;DHT22;11313;50.116;8.424;2023-04-01T16:22:05;24.10;45.40
22290;DHT22;11313;50.116;8.424;2023-04-01T16:24:45;24.10;45.40
22290;DHT22;11313;50.116;8.424;2023-04-01T16:27:15;24.10;46.00
22290;DHT22;11313;50.116;8.424;2023-04-01T16:29:51;24.10;45.40
22290;DHT22;11313;50.116;8.424;2023-04-01T16:32:52;24.20;45.40
22290;DHT22;11313;50.116;8.424;2023-04-01T16:36:07;24.10;45.30
22290;DHT22;11313;50.116;8.424;2023-04-01T16:38:41;24.10;45.50
22290;DHT22;11313;50.116;8.424;2023-04-01T16:41:17;24.10;45.60
22290;DHT22;11313;50.116;8.424;2023-04-01T16:46:41;24.10;45.70
22290;DHT22;11313;50.116;8.424;2023-04-01T16:57:23;24.20;45.80
22290;DHT22;11313;50.116;8.424;2023-04-01T17:02:36;24.10;45.80
22290;DHT22;11313;50.116;8.424;2023-04-01T17:05:08;24.10;45.80
22290;DHT22;11313;50.116;8.424;2023-04-01T17:24:46;24.10;45.70
22290;DHT22;11313;50.116;8.424;2023-04-01T17:27:46;24.10;45.80
22290;DHT22;11313;50.116;8.424;2023-04-01T17:39:03;24.10;45.70
22290;DHT22;11313;50.116;8.424;2023-04-01T17:41:42;24.10;45.70
22290;DHT22;11313;50.116;8.424;2023-04-01T17:49:36;24.10;45.70
22290;DHT22;11313;50.116;8.424;2023-04-01T17:52:33;24.10;45.70
22290;DHT22;11313;50.116;8.424;2023-04-01T17:58:17;24.00;45.60
22290;DHT22;11313;50.116;8.424;2023-04-01T18:00:55;24.10;45.70
22290;DHT22;11313;50.116;8.424;2023-04-01T18:06:58;24.00;45.60
22290;DHT22;11313;50.116;8.424;2023-04-01T18:12:56;24.10;45.70
22290;DHT22;11313;50.116;8.424;2023-04-01T18:21:19;24.10;45.60
22290;DHT22;11313;50.116;8.424;2023-04-01T18:23:59;24.10;45.70
22290;DHT22;11313;50.116;8.424;2023-04-01T18:26:35;24.10;45.60
22290;DHT22;11313;50.116;8.424;2023-04-01T18:32:15;24.10;45.60
22290;DHT22;11313;50.116;8.424;2023-04-01T18:40:38;24.10;45.60
22290;DHT22;11313;50.116;8.424;2023-04-01T18:43:14;24.10;45.60
22290;DHT22;11313;50.116;8.424;2023-04-01T18:48:34;24.10;46.00
22290;DHT22;11313;50.116;8.424;2023-04-01T18:54:33;24.10;46.00
22290;DHT22;11313;50.116;8.424;2023-04-01T18:57:13;24.10;46.00
22290;DHT22;11313;50.116;8.424;2023-04-01T19:07:52;24.10;46.00
22290;DHT22;11313;50.116;8.424;2023-04-01T19:10:26;24.10;46.00
22290;DHT22;11313;50.116;8.424;2023-04-01T19:13:30;24.10;46.00
22290;DHT22;11313;50.116;8.424;2023-04-01T19:19:04;24.10;46.00
22290;DHT22;11313;50.116;8.424;2023-04-01T19:21:40;24.10;46.10
22290;DHT22;11313;50.116;8.424;2023-04-01T19:27:18;24.10;46.00
22290;DHT22;11313;50.116;8.424;2023-04-01T19:30:15;24.10;46.00
22290;DHT22;11313;50.116;8.424;2023-04-01T19:32:53;24.10;46.00
22290;DHT22;11313;50.116;8.424;2023-04-01T19:35:42;24.10;46.00
22290;DHT22;11313;50.116;8.424;2023-04-01T19:38:29;24.10;46.00
22290;DHT22;11313;50.116;8.424;2023-04-01T19:41:13;24.10;46.00
22290;DHT22;11313;50.116;8.424;2023-04-01T19:46:40;24.10;46.00
22290;DHT22;11313;50.116;8.424;2023-04-01T19:49:21;24.10;46.00
22290;DHT22;11313;50.116;8.424;2023-04-01T19:52:14;24.10;46.00
22290;DHT22;11313;50.116;8.424;2023-04-01T19:54:54;24.10;46.00
22290;DHT22;11313;50.116;8.424;2023-04-01T19:57:34;24.10;46.00
22290;DHT22;11313;50.116;8.424;2023-04-01T20:00:25;24.10;46.00
22290;DHT22;11313;50.116;8.424;2023-04-01T20:05:32;24.10;46.00
22290;DHT22;11313;50.116;8.424;2023-04-01T20:09:04;24.10;46.00
22290;DHT22;11313;50.116;8.424;2023-04-01T20:11:21;24.10;45.90
22290;DHT22;11313;50.116;8.424;2023-04-01T20:14:40;24.10;45.90
22290;DHT22;11313;50.116;8.424;2023-04-01T20:19:34;24.10;45.90
22290;DHT22;11313;50.116;8.424;2023-04-01T20:22:02;24.10;45.90
22290;DHT22;11313;50.116;8.424;2023-04-01T20:24:43;24.10;45.90
22290;DHT22;11313;50.116;8.424;2023-04-01T20:27:18;24.10;45.90
22290;DHT22;11313;50.116;8.424;2023-04-01T20:33:21;24.10;45.80
22290;DHT22;11313;50.116;8.424;2023-04-01T20:44:28;24.10;45.80
22290;DHT22;11313;50.116;8.424;2023-04-01T20:47:44;24.10;45.80
22290;DHT22;11313;50.116;8.424;2023-04-01T20:50:31;24.10;45.80
22290;DHT22;11313;50.116;8.424;2023-04-01T20:53:15;24.10;45.80
22290;DHT22;11313;50.116;8.424;2023-04-01T21:06:50;24.00;45.70
22290;DHT22;11313;50.116;8.424;2023-04-01T21:09:28;24.00;45.70
22290;DHT22;11313;50.116;8.424;2023-04-01T21:12:45;24.00;45.70
22290;DHT22;11313;50.116;8.424;2023-04-01T21:17:58;24.00;45.70
22290;DHT22;11313;50.116;8.424;2023-04-01T21:28:59;24.00;45.80
22290;DHT22;11313;50.116;8.424;2023-04-01T21:31:48;24.00;45.70
22290;DHT22;11313;50.116;8.424;2023-04-01T21:34:36;24.00;45.70
22290;DHT22;11313;50.116;8.424;2023-04-01T21:40:00;24.00;45.70
22290;DHT22;11313;50.116;8.424;2023-04-01T21:42:40;24.00;45.70
22290;DHT22;11313;50.116;8.424;2023-04-01T21:57:07;23.90;45.70
22290;DHT22;11313;50.116;8.424;2023-04-01T22:13:20;23.90;45.60
22290;DHT22;11313;50.116;8.424;2023-04-01T22:19:04;23.90;45.80
22290;DHT22;11313;50.116;8.424;2023-04-01T22:21:46;23.90;45.80
22290;DHT22;11313;50.116;8.424;2023-04-01T22:24:26;23.90;45.80
22290;DHT22;11313;50.116;8.424;2023-04-01T22:30:01;23.90;45.90
22290;DHT22;11313;50.116;8.424;2023-04-01T22:32:42;23.90;45.80
22290;DHT22;11313;50.116;8.424;2023-04-01T22:40:43;24.00;45.80
22290;DHT22;11313;50.116;8.424;2023-04-01T22:43:24;24.00;45.80
22290;DHT22;11313;50.116;8.424;2023-04-01T22:54:04;24.00;45.70
22290;DHT22;11313;50.116;8.424;2023-04-01T22:56:37;24.00;45.70
22290;DHT22;11313;50.116;8.424;2023-04-01T23:01:49;24.00;45.70
22290;DHT22;11313;50.116;8.424;2023-04-01T23:04:20;24.00;45.70
22290;DHT22;11313;50.116;8.424;2023-04-01T23:06:51;24.00;45.60
22290;DHT22;11313;50.116;8.424;2023-04-01T23:09:45;24.00;45.60
22290;DHT22;11313;50.116;8.424;2023-04-01T23:12:13;24.00;45.60
22290;DHT22;11313;50.116;8.424;2023-04-01T23:14:51;24.00;45.70
22290;DHT22;11313;50.116;8.424;2023-04-01T23:17:41;24.00;45.60
22290;DHT22;11313;50.116;8.424;2023-04-01T23:23:08;24.00;45.60
22290;DHT22;11313;50.116;8.424;2023-04-01T23:26:10;24.00;45.60
22290;DHT22;11313;50.116;8.424;2023-04-01T23:28:51;24.00;45.60
22290;DHT22;11313;50.116;8.424;2023-04-01T23:31:46;24.00;45.60
22290;DHT22;11313;50.116;8.424;2023-04-01T23:36:43;24.00;45.50
22290;DHT22;11313;50.116;8.424;2023-04-01T23:39:32;24.00;45.40
22290;DHT22;11313;50.116;8.424;2023-04-01T23:42:04;24.10;45.50
22290;DHT22;11313;50.116;8.424;2023-04-01T23:44:32;24.10;45.50
22290;DHT22;11313;50.116;8.424;2023-04-01T23:46:59;24.00;45.40
22290;DHT22;11313;50.116;8.424;2023-04-01T23:49:34;24.10;45.40
22290;DHT22;11313;50.116;8.424;2023-04-01T23:52:16;24.10;45.40
22290;DHT22;11313;50.116;8.424;2023-04-01T23:57:35;24.10;45.40
